sensor_id;sensor_type;location;lat;lon;timestamp;P1;durP1;ratioP1;P2;durP2;ratioP2
16193;SDS011;8204;53.582;10.080;2022-10-16T00:01:46;7.30;;;6.80;;
16193;SDS011;8204;53.582;10.080;2022-10-16T00:04:17;6.27;;;5.60;;
16193;SDS011;8204;53.582;10.080;2022-10-16T00:06:46;5.77;;;5.17;;
16193;SDS011;8204;53.582;10.080;2022-10-16T00:09:15;5.67;;;5.10;;
16193;SDS011;8204;53.582;10.080;2022-10-16T00:11:44;7.10;;;6.07;;
16193;SDS011;8204;53.582;10.080;2022-10-16T00:14:14;6.27;;;4.70;;
16193;SDS011;8204;53.582;10.080;2022-10-16T00:16:46;8.37;;;5.20;;
16193;SDS011;8204;53.582;10.080;2022-10-16T00:19:17;6.50;;;5.97;;
16193;SDS011;8204;53.582;10.080;2022-10-16T00:21:46;5.83;;;4.63;;
16193;SDS011;8204;53.582;10.080;2022-10-16T00:24:15;7.23;;;5.33;;
16193;SDS011;8204;53.582;10.080;2022-10-16T00:26:43;5.53;;;4.87;;
16193;SDS011;8204;53.582;10.080;2022-10-16T00:29:12;6.53;;;6.03;;
16193;SDS011;8204;53.582;10.080;2022-10-16T00:31:41;6.07;;;5.57;;
16193;SDS011;8204;53.582;10.080;2022-10-16T00:34:10;6.63;;;6.00;;
16193;SDS011;8204;53.582;10.080;2022-10-16T00:36:41;6.80;;;5.80;;
16193;SDS011;8204;53.582;10.080;2022-10-16T00:39:10;7.63;;;6.53;;
16193;SDS011;8204;53.582;10.080;2022-10-16T00:41:38;7.80;;;7.13;;
16193;SDS011;8204;53.582;10.080;2022-10-16T00:47:07;6.87;;;6.37;;
16193;SDS011;8204;53.582;10.080;2022-10-16T00:49:38;9.67;;;6.57;;
16193;SDS011;8204;53.582;10.080;2022-10-16T00:52:09;7.77;;;7.07;;
16193;SDS011;8204;53.582;10.080;2022-10-16T00:54:39;7.80;;;7.10;;
16193;SDS011;8204;53.582;10.080;2022-10-16T00:57:08;8.63;;;6.67;;
16193;SDS011;8204;53.582;10.080;2022-10-16T00:59:37;7.67;;;6.73;;
16193;SDS011;8204;53.582;10.080;2022-10-16T01:02:09;7.70;;;7.00;;
16193;SDS011;8204;53.582;10.080;2022-10-16T01:04:41;7.43;;;6.83;;
16193;SDS011;8204;53.582;10.080;2022-10-16T01:07:16;8.10;;;7.43;;
16193;SDS011;8204;53.582;10.080;2022-10-16T01:09:53;8.37;;;7.50;;
16193;SDS011;8204;53.582;10.080;2022-10-16T01:12:33;6.77;;;6.07;;
16193;SDS011;8204;53.582;10.080;2022-10-16T01:15:10;7.57;;;6.90;;
16193;SDS011;8204;53.582;10.080;2022-10-16T01:17:45;7.50;;;6.63;;
16193;SDS011;8204;53.582;10.080;2022-10-16T01:20:25;9.80;;;8.17;;
16193;SDS011;8204;53.582;10.080;2022-10-16T01:23:04;11.83;;;7.07;;
16193;SDS011;8204;53.582;10.080;2022-10-16T01:28:45;7.50;;;6.70;;
16193;SDS011;8204;53.582;10.080;2022-10-16T01:31:18;7.90;;;7.10;;
16193;SDS011;8204;53.582;10.080;2022-10-16T01:33:53;8.77;;;7.40;;
16193;SDS011;8204;53.582;10.080;2022-10-16T01:36:28;7.33;;;6.73;;
16193;SDS011;8204;53.582;10.080;2022-10-16T01:39:03;7.53;;;6.80;;
16193;SDS011;8204;53.582;10.080;2022-10-16T01:41:38;9.47;;;6.53;;
16193;SDS011;8204;53.582;10.080;2022-10-16T01:44:15;10.77;;;5.90;;
16193;SDS011;8204;53.582;10.080;2022-10-16T01:46:48;7.07;;;6.37;;
16193;SDS011;8204;53.582;10.080;2022-10-16T01:49:20;5.63;;;4.77;;
16193;SDS011;8204;53.582;10.080;2022-10-16T01:51:52;7.20;;;5.17;;
16193;SDS011;8204;53.582;10.080;2022-10-16T01:54:24;6.47;;;5.20;;
16193;SDS011;8204;53.582;10.080;2022-10-16T01:56:55;5.23;;;4.73;;
16193;SDS011;8204;53.582;10.080;2022-10-16T01:59:28;7.30;;;5.57;;
16193;SDS011;8204;53.582;10.080;2022-10-16T02:02:00;6.10;;;4.27;;
16193;SDS011;8204;53.582;10.080;2022-10-16T02:04:34;5.53;;;4.70;;
16193;SDS011;8204;53.582;10.080;2022-10-16T02:07:07;5.60;;;3.90;;
16193;SDS011;8204;53.582;10.080;2022-10-16T02:09:36;8.33;;;4.73;;
16193;SDS011;8204;53.582;10.080;2022-10-16T02:12:07;6.23;;;4.87;;
16193;SDS011;8204;53.582;10.080;2022-10-16T02:14:42;8.90;;;3.87;;
16193;SDS011;8204;53.582;10.080;2022-10-16T02:17:11;5.43;;;3.73;;
16193;SDS011;8204;53.582;10.080;2022-10-16T02:19:42;6.53;;;4.47;;
16193;SDS011;8204;53.582;10.080;2022-10-16T02:22:14;5.70;;;4.33;;
16193;SDS011;8204;53.582;10.080;2022-10-16T02:24:47;4.67;;;4.33;;
16193;SDS011;8204;53.582;10.080;2022-10-16T02:27:23;7.27;;;4.63;;
16193;SDS011;8204;53.582;10.080;2022-10-16T02:29:59;5.40;;;4.93;;
16193;SDS011;8204;53.582;10.080;2022-10-16T02:32:35;5.47;;;4.07;;
16193;SDS011;8204;53.582;10.080;2022-10-16T02:35:07;5.30;;;4.80;;
16193;SDS011;8204;53.582;10.080;2022-10-16T02:37:38;5.80;;;5.20;;
16193;SDS011;8204;53.582;10.080;2022-10-16T02:40:09;4.47;;;4.17;;
16193;SDS011;8204;53.582;10.080;2022-10-16T02:42:39;4.57;;;4.17;;
16193;SDS011;8204;53.582;10.080;2022-10-16T02:45:12;7.17;;;4.67;;
16193;SDS011;8204;53.582;10.080;2022-10-16T02:47:40;9.10;;;4.70;;
16193;SDS011;8204;53.582;10.080;2022-10-16T02:50:09;4.87;;;4.47;;
16193;SDS011;8204;53.582;10.080;2022-10-16T02:52:38;4.53;;;4.13;;
16193;SDS011;8204;53.582;10.080;2022-10-16T02:55:07;6.70;;;6.10;;
16193;SDS011;8204;53.582;10.080;2022-10-16T02:57:36;7.97;;;4.70;;
16193;SDS011;8204;53.582;10.080;2022-10-16T03:00:06;4.37;;;3.87;;
16193;SDS011;8204;53.582;10.080;2022-10-16T03:02:38;4.70;;;3.23;;
16193;SDS011;8204;53.582;10.080;2022-10-16T03:05:08;3.77;;;3.47;;
16193;SDS011;8204;53.582;10.080;2022-10-16T03:07:37;3.60;;;3.30;;
16193;SDS011;8204;53.582;10.080;2022-10-16T03:10:06;3.43;;;3.10;;
16193;SDS011;8204;53.582;10.080;2022-10-16T03:12:36;4.03;;;3.30;;
16193;SDS011;8204;53.582;10.080;2022-10-16T03:15:05;4.40;;;3.40;;
16193;SDS011;8204;53.582;10.080;2022-10-16T03:17:35;3.50;;;3.20;;
16193;SDS011;8204;53.582;10.080;2022-10-16T03:20:07;2.77;;;2.53;;
16193;SDS011;8204;53.582;10.080;2022-10-16T03:22:36;3.60;;;3.07;;
16193;SDS011;8204;53.582;10.080;2022-10-16T03:25:05;3.33;;;2.97;;
16193;SDS011;8204;53.582;10.080;2022-10-16T03:27:34;3.30;;;3.00;;
16193;SDS011;8204;53.582;10.080;2022-10-16T03:30:03;6.10;;;2.90;;
16193;SDS011;8204;53.582;10.080;2022-10-16T03:32:32;6.13;;;3.00;;
16193;SDS011;8204;53.582;10.080;2022-10-16T03:35:01;3.93;;;2.87;;
16193;SDS011;8204;53.582;10.080;2022-10-16T03:37:33;5.37;;;3.10;;
16193;SDS011;8204;53.582;10.080;2022-10-16T03:40:02;5.50;;;2.80;;
16193;SDS011;8204;53.582;10.080;2022-10-16T03:42:31;2.47;;;2.27;;
16193;SDS011;8204;53.582;10.080;2022-10-16T03:45:00;4.33;;;2.40;;
16193;SDS011;8204;53.582;10.080;2022-10-16T03:47:29;4.03;;;2.63;;
16193;SDS011;8204;53.582;10.080;2022-10-16T03:49:59;2.73;;;2.47;;
16193;SDS011;8204;53.582;10.080;2022-10-16T03:52:28;5.07;;;2.93;;
16193;SDS011;8204;53.582;10.080;2022-10-16T03:55:00;4.03;;;2.70;;
16193;SDS011;8204;53.582;10.080;2022-10-16T03:57:28;4.17;;;2.77;;
16193;SDS011;8204;53.582;10.080;2022-10-16T03:59:57;5.10;;;2.80;;
16193;SDS011;8204;53.582;10.080;2022-10-16T04:02:26;4.57;;;2.73;;
16193;SDS011;8204;53.582;10.080;2022-10-16T04:04:55;2.57;;;2.33;;
16193;SDS011;8204;53.582;10.080;2022-10-16T04:07:24;3.87;;;3.03;;
16193;SDS011;8204;53.582;10.080;2022-10-16T04:09:52;4.80;;;2.93;;
16193;SDS011;8204;53.582;10.080;2022-10-16T04:12:25;8.00;;;3.07;;
16193;SDS011;8204;53.582;10.080;2022-10-16T04:14:54;5.00;;;3.27;;
16193;SDS011;8204;53.582;10.080;2022-10-16T04:17:23;3.43;;;2.73;;
16193;SDS011;8204;53.582;10.080;2022-10-16T04:19:51;3.03;;;2.70;;
16193;SDS011;8204;53.582;10.080;2022-10-16T04:22:20;2.87;;;2.67;;
16193;SDS011;8204;53.582;10.080;2022-10-16T04:24:49;2.77;;;2.53;;
16193;SDS011;8204;53.582;10.080;2022-10-16T04:27:18;3.47;;;2.80;;
16193;SDS011;8204;53.582;10.080;2022-10-16T04:29:49;5.20;;;2.93;;
16193;SDS011;8204;53.582;10.080;2022-10-16T04:32:18;3.13;;;2.80;;
16193;SDS011;8204;53.582;10.080;2022-10-16T04:34:47;4.70;;;3.03;;
16193;SDS011;8204;53.582;10.080;2022-10-16T04:37:15;3.93;;;3.27;;
16193;SDS011;8204;53.582;10.080;2022-10-16T04:39:44;6.87;;;3.70;;
16193;SDS011;8204;53.582;10.080;2022-10-16T04:42:13;4.63;;;3.00;;
16193;SDS011;8204;53.582;10.080;2022-10-16T04:44:42;3.50;;;2.77;;
16193;SDS011;8204;53.582;10.080;2022-10-16T04:47:13;2.27;;;2.17;;
16193;SDS011;8204;53.582;10.080;2022-10-16T04:49:42;3.93;;;2.90;;
16193;SDS011;8204;53.582;10.080;2022-10-16T04:52:10;3.87;;;2.40;;
16193;SDS011;8204;53.582;10.080;2022-10-16T04:54:39;4.40;;;2.53;;
16193;SDS011;8204;53.582;10.080;2022-10-16T04:57:10;4.40;;;3.63;;
16193;SDS011;8204;53.582;10.080;2022-10-16T04:59:39;5.60;;;3.10;;
16193;SDS011;8204;53.582;10.080;2022-10-16T05:02:08;2.70;;;2.50;;
16193;SDS011;8204;53.582;10.080;2022-10-16T05:04:39;3.57;;;2.93;;
16193;SDS011;8204;53.582;10.080;2022-10-16T05:07:08;2.13;;;1.97;;
16193;SDS011;8204;53.582;10.080;2022-10-16T05:09:37;3.97;;;3.07;;
16193;SDS011;8204;53.582;10.080;2022-10-16T05:12:06;2.90;;;2.60;;
16193;SDS011;8204;53.582;10.080;2022-10-16T05:14:34;3.80;;;3.03;;
16193;SDS011;8204;53.582;10.080;2022-10-16T05:17:03;8.37;;;3.97;;
16193;SDS011;8204;53.582;10.080;2022-10-16T05:19:32;3.30;;;2.23;;
16193;SDS011;8204;53.582;10.080;2022-10-16T05:22:03;4.03;;;3.47;;
16193;SDS011;8204;53.582;10.080;2022-10-16T05:24:32;3.77;;;3.47;;
16193;SDS011;8204;53.582;10.080;2022-10-16T05:27:00;4.67;;;3.03;;
16193;SDS011;8204;53.582;10.080;2022-10-16T05:29:29;3.83;;;3.23;;
16193;SDS011;8204;53.582;10.080;2022-10-16T05:31:58;5.50;;;3.57;;
16193;SDS011;8204;53.582;10.080;2022-10-16T05:34:27;6.17;;;4.10;;
16193;SDS011;8204;53.582;10.080;2022-10-16T05:36:55;4.40;;;3.20;;
16193;SDS011;8204;53.582;10.080;2022-10-16T05:39:27;4.73;;;3.10;;
16193;SDS011;8204;53.582;10.080;2022-10-16T05:41:56;6.20;;;3.90;;
16193;SDS011;8204;53.582;10.080;2022-10-16T05:44:25;6.67;;;4.03;;
16193;SDS011;8204;53.582;10.080;2022-10-16T05:46:53;4.67;;;3.73;;
16193;SDS011;8204;53.582;10.080;2022-10-16T05:49:22;3.47;;;3.17;;
16193;SDS011;8204;53.582;10.080;2022-10-16T05:51:51;4.33;;;3.87;;
16193;SDS011;8204;53.582;10.080;2022-10-16T05:54:20;4.03;;;3.37;;
16193;SDS011;8204;53.582;10.080;2022-10-16T05:56:51;4.93;;;4.47;;
16193;SDS011;8204;53.582;10.080;2022-10-16T05:59:20;6.30;;;3.77;;
16193;SDS011;8204;53.582;10.080;2022-10-16T06:01:48;5.10;;;3.50;;
16193;SDS011;8204;53.582;10.080;2022-10-16T06:04:19;4.73;;;3.00;;
16193;SDS011;8204;53.582;10.080;2022-10-16T06:06:47;5.23;;;3.83;;
16193;SDS011;8204;53.582;10.080;2022-10-16T06:09:16;4.60;;;3.40;;
16193;SDS011;8204;53.582;10.080;2022-10-16T06:11:45;4.37;;;3.63;;
16193;SDS011;8204;53.582;10.080;2022-10-16T06:14:16;4.20;;;3.73;;
16193;SDS011;8204;53.582;10.080;2022-10-16T06:16:45;3.33;;;3.03;;
16193;SDS011;8204;53.582;10.080;2022-10-16T06:19:14;9.27;;;3.83;;
16193;SDS011;8204;53.582;10.080;2022-10-16T06:21:43;3.93;;;2.83;;
16193;SDS011;8204;53.582;10.080;2022-10-16T06:24:12;3.60;;;3.20;;
16193;SDS011;8204;53.582;10.080;2022-10-16T06:26:41;8.83;;;3.33;;
16193;SDS011;8204;53.582;10.080;2022-10-16T06:29:10;5.37;;;3.30;;
16193;SDS011;8204;53.582;10.080;2022-10-16T06:31:41;3.77;;;3.23;;
16193;SDS011;8204;53.582;10.080;2022-10-16T06:34:10;5.60;;;3.53;;
16193;SDS011;8204;53.582;10.080;2022-10-16T06:36:39;3.53;;;3.23;;
16193;SDS011;8204;53.582;10.080;2022-10-16T06:39:09;6.43;;;3.80;;
16193;SDS011;8204;53.582;10.080;2022-10-16T06:41:37;5.33;;;3.87;;
16193;SDS011;8204;53.582;10.080;2022-10-16T06:44:06;4.30;;;3.90;;
16193;SDS011;8204;53.582;10.080;2022-10-16T06:46:35;4.00;;;3.17;;
16193;SDS011;8204;53.582;10.080;2022-10-16T06:49:07;8.20;;;4.13;;
16193;SDS011;8204;53.582;10.080;2022-10-16T06:51:36;4.67;;;3.90;;
16193;SDS011;8204;53.582;10.080;2022-10-16T06:54:06;4.10;;;3.17;;
16193;SDS011;8204;53.582;10.080;2022-10-16T06:56:35;8.67;;;3.93;;
16193;SDS011;8204;53.582;10.080;2022-10-16T06:59:04;3.47;;;3.23;;
16193;SDS011;8204;53.582;10.080;2022-10-16T07:01:33;7.40;;;4.10;;
16193;SDS011;8204;53.582;10.080;2022-10-16T07:04:02;6.50;;;4.60;;
16193;SDS011;8204;53.582;10.080;2022-10-16T07:06:33;4.47;;;3.80;;
16193;SDS011;8204;53.582;10.080;2022-10-16T07:09:03;6.00;;;4.43;;
16193;SDS011;8204;53.582;10.080;2022-10-16T07:11:33;7.77;;;4.50;;
16193;SDS011;8204;53.582;10.080;2022-10-16T07:14:03;6.57;;;4.97;;
16193;SDS011;8204;53.582;10.080;2022-10-16T07:16:32;4.80;;;4.30;;
16193;SDS011;8204;53.582;10.080;2022-10-16T07:19:01;5.33;;;4.77;;
16193;SDS011;8204;53.582;10.080;2022-10-16T07:21:31;7.83;;;4.77;;
16193;SDS011;8204;53.582;10.080;2022-10-16T07:24:04;5.50;;;4.23;;
16193;SDS011;8204;53.582;10.080;2022-10-16T07:26:35;6.03;;;5.33;;
16193;SDS011;8204;53.582;10.080;2022-10-16T07:29:05;8.33;;;4.40;;
16193;SDS011;8204;53.582;10.080;2022-10-16T07:31:34;9.90;;;4.87;;
16193;SDS011;8204;53.582;10.080;2022-10-16T07:34:04;5.80;;;4.47;;
16193;SDS011;8204;53.582;10.080;2022-10-16T07:36:36;7.07;;;4.73;;
16193;SDS011;8204;53.582;10.080;2022-10-16T07:39:04;4.90;;;4.50;;
16193;SDS011;8204;53.582;10.080;2022-10-16T07:41:34;7.20;;;4.60;;
16193;SDS011;8204;53.582;10.080;2022-10-16T07:44:03;4.43;;;4.03;;
16193;SDS011;8204;53.582;10.080;2022-10-16T07:46:32;4.20;;;3.80;;
16193;SDS011;8204;53.582;10.080;2022-10-16T07:49:01;6.10;;;4.50;;
16193;SDS011;8204;53.582;10.080;2022-10-16T07:51:31;4.07;;;3.67;;
16193;SDS011;8204;53.582;10.080;2022-10-16T07:54:02;7.40;;;3.77;;
16193;SDS011;8204;53.582;10.080;2022-10-16T08:11:55;9.23;;;4.43;;
16193;SDS011;8204;53.582;10.080;2022-10-16T08:14:24;7.80;;;4.70;;
16193;SDS011;8204;53.582;10.080;2022-10-16T08:16:53;4.73;;;4.17;;
16193;SDS011;8204;53.582;10.080;2022-10-16T08:19:21;3.80;;;3.13;;
16193;SDS011;8204;53.582;10.080;2022-10-16T08:21:50;6.13;;;4.03;;
16193;SDS011;8204;53.582;10.080;2022-10-16T08:24:19;5.87;;;3.47;;
16193;SDS011;8204;53.582;10.080;2022-10-16T08:26:48;3.40;;;3.07;;
16193;SDS011;8204;53.582;10.080;2022-10-16T08:29:19;4.90;;;3.33;;
16193;SDS011;8204;53.582;10.080;2022-10-16T08:31:48;3.90;;;3.60;;
16193;SDS011;8204;53.582;10.080;2022-10-16T08:34:17;4.13;;;3.83;;
16193;SDS011;8204;53.582;10.080;2022-10-16T08:36:46;3.93;;;3.60;;
16193;SDS011;8204;53.582;10.080;2022-10-16T08:39:15;4.90;;;3.63;;
16193;SDS011;8204;53.582;10.080;2022-10-16T08:41:53;6.87;;;4.80;;
16193;SDS011;8204;53.582;10.080;2022-10-16T08:47:43;4.63;;;2.83;;
16193;SDS011;8204;53.582;10.080;2022-10-16T08:50:18;6.97;;;2.93;;
16193;SDS011;8204;53.582;10.080;2022-10-16T08:52:53;7.57;;;3.67;;
16193;SDS011;8204;53.582;10.080;2022-10-16T08:55:33;2.83;;;2.63;;
16193;SDS011;8204;53.582;10.080;2022-10-16T08:58:10;6.47;;;3.43;;
16193;SDS011;8204;53.582;10.080;2022-10-16T09:00:44;7.37;;;3.47;;
16193;SDS011;8204;53.582;10.080;2022-10-16T09:06:17;4.30;;;3.13;;
16193;SDS011;8204;53.582;10.080;2022-10-16T09:09:09;3.27;;;2.90;;
16193;SDS011;8204;53.582;10.080;2022-10-16T09:11:49;3.10;;;2.90;;
16193;SDS011;8204;53.582;10.080;2022-10-16T09:14:38;3.57;;;3.00;;
16193;SDS011;8204;53.582;10.080;2022-10-16T09:17:30;4.20;;;3.07;;
16193;SDS011;8204;53.582;10.080;2022-10-16T09:20:12;4.10;;;2.73;;
16193;SDS011;8204;53.582;10.080;2022-10-16T09:22:47;2.63;;;2.23;;
16193;SDS011;8204;53.582;10.080;2022-10-16T09:25:17;2.50;;;2.30;;
16193;SDS011;8204;53.582;10.080;2022-10-16T09:27:51;6.97;;;2.77;;
16193;SDS011;8204;53.582;10.080;2022-10-16T09:30:21;3.43;;;2.60;;
16193;SDS011;8204;53.582;10.080;2022-10-16T09:32:53;2.93;;;2.57;;
16193;SDS011;8204;53.582;10.080;2022-10-16T09:35:26;4.40;;;2.30;;
16193;SDS011;8204;53.582;10.080;2022-10-16T09:38:00;2.53;;;2.33;;
16193;SDS011;8204;53.582;10.080;2022-10-16T09:40:30;2.37;;;2.17;;
16193;SDS011;8204;53.582;10.080;2022-10-16T09:43:03;2.40;;;2.20;;
16193;SDS011;8204;53.582;10.080;2022-10-16T09:45:52;4.77;;;2.27;;
16193;SDS011;8204;53.582;10.080;2022-10-16T09:48:25;2.77;;;2.27;;
16193;SDS011;8204;53.582;10.080;2022-10-16T09:50:57;2.17;;;1.97;;
16193;SDS011;8204;53.582;10.080;2022-10-16T09:53:40;4.10;;;2.17;;
16193;SDS011;8204;53.582;10.080;2022-10-16T09:56:11;4.63;;;2.00;;
16193;SDS011;8204;53.582;10.080;2022-10-16T09:58:49;3.47;;;1.50;;
16193;SDS011;8204;53.582;10.080;2022-10-16T10:01:19;5.50;;;2.23;;
16193;SDS011;8204;53.582;10.080;2022-10-16T10:03:55;1.53;;;1.43;;
16193;SDS011;8204;53.582;10.080;2022-10-16T10:06:29;2.67;;;1.80;;
16193;SDS011;8204;53.582;10.080;2022-10-16T10:09:02;5.10;;;2.60;;
16193;SDS011;8204;53.582;10.080;2022-10-16T10:11:37;2.73;;;1.70;;
16193;SDS011;8204;53.582;10.080;2022-10-16T10:14:09;2.00;;;1.57;;
16193;SDS011;8204;53.582;10.080;2022-10-16T10:16:45;7.40;;;2.43;;
16193;SDS011;8204;53.582;10.080;2022-10-16T10:19:18;7.67;;;2.47;;
16193;SDS011;8204;53.582;10.080;2022-10-16T10:21:49;3.93;;;2.20;;
16193;SDS011;8204;53.582;10.080;2022-10-16T10:24:19;4.23;;;2.00;;
16193;SDS011;8204;53.582;10.080;2022-10-16T10:26:49;5.07;;;2.33;;
16193;SDS011;8204;53.582;10.080;2022-10-16T10:29:26;4.13;;;2.13;;
16193;SDS011;8204;53.582;10.080;2022-10-16T10:32:08;4.47;;;1.90;;
16193;SDS011;8204;53.582;10.080;2022-10-16T10:34:53;3.37;;;2.30;;
16193;SDS011;8204;53.582;10.080;2022-10-16T10:37:35;1.90;;;1.67;;
16193;SDS011;8204;53.582;10.080;2022-10-16T10:40:15;5.93;;;2.37;;
16193;SDS011;8204;53.582;10.080;2022-10-16T10:42:53;3.00;;;1.87;;
16193;SDS011;8204;53.582;10.080;2022-10-16T10:45:35;4.83;;;2.00;;
16193;SDS011;8204;53.582;10.080;2022-10-16T10:51:19;2.90;;;1.53;;
16193;SDS011;8204;53.582;10.080;2022-10-16T10:53:56;2.37;;;1.83;;
16193;SDS011;8204;53.582;10.080;2022-10-16T10:56:41;3.50;;;1.90;;
16193;SDS011;8204;53.582;10.080;2022-10-16T10:59:17;6.73;;;2.70;;
16193;SDS011;8204;53.582;10.080;2022-10-16T11:01:58;3.20;;;1.73;;
16193;SDS011;8204;53.582;10.080;2022-10-16T11:07:27;3.87;;;1.77;;
16193;SDS011;8204;53.582;10.080;2022-10-16T11:09:58;2.57;;;2.37;;
16193;SDS011;8204;53.582;10.080;2022-10-16T11:12:33;5.93;;;2.03;;
16193;SDS011;8204;53.582;10.080;2022-10-16T11:15:11;2.63;;;1.53;;
16193;SDS011;8204;53.582;10.080;2022-10-16T11:17:44;4.57;;;2.00;;
16193;SDS011;8204;53.582;10.080;2022-10-16T11:20:19;1.70;;;1.40;;
16193;SDS011;8204;53.582;10.080;2022-10-16T11:22:54;2.17;;;1.30;;
16193;SDS011;8204;53.582;10.080;2022-10-16T11:25:28;4.17;;;1.33;;
16193;SDS011;8204;53.582;10.080;2022-10-16T11:28:01;4.73;;;1.60;;
16193;SDS011;8204;53.582;10.080;2022-10-16T11:30:34;5.33;;;2.37;;
16193;SDS011;8204;53.582;10.080;2022-10-16T11:33:17;3.37;;;1.30;;
16193;SDS011;8204;53.582;10.080;2022-10-16T11:35:59;6.63;;;2.00;;
16193;SDS011;8204;53.582;10.080;2022-10-16T11:38:35;1.97;;;1.40;;
16193;SDS011;8204;53.582;10.080;2022-10-16T11:41:10;2.50;;;1.50;;
16193;SDS011;8204;53.582;10.080;2022-10-16T11:43:48;3.60;;;1.77;;
16193;SDS011;8204;53.582;10.080;2022-10-16T11:46:21;3.47;;;1.50;;
16193;SDS011;8204;53.582;10.080;2022-10-16T11:48:54;2.83;;;1.67;;
16193;SDS011;8204;53.582;10.080;2022-10-16T11:51:30;2.87;;;1.87;;
16193;SDS011;8204;53.582;10.080;2022-10-16T11:54:08;3.13;;;1.40;;
16193;SDS011;8204;53.582;10.080;2022-10-16T11:56:50;2.77;;;1.87;;
16193;SDS011;8204;53.582;10.080;2022-10-16T11:59:24;5.37;;;2.00;;
16193;SDS011;8204;53.582;10.080;2022-10-16T12:02:03;2.23;;;1.53;;
16193;SDS011;8204;53.582;10.080;2022-10-16T12:05:11;3.50;;;1.80;;
16193;SDS011;8204;53.582;10.080;2022-10-16T12:07:49;2.20;;;1.47;;
16193;SDS011;8204;53.582;10.080;2022-10-16T12:10:26;2.90;;;1.67;;
16193;SDS011;8204;53.582;10.080;2022-10-16T12:12:57;9.67;;;2.07;;
16193;SDS011;8204;53.582;10.080;2022-10-16T12:15:27;4.80;;;1.67;;
16193;SDS011;8204;53.582;10.080;2022-10-16T12:17:58;2.23;;;2.03;;
16193;SDS011;8204;53.582;10.080;2022-10-16T12:20:30;4.87;;;1.53;;
16193;SDS011;8204;53.582;10.080;2022-10-16T12:23:03;3.17;;;1.83;;
16193;SDS011;8204;53.582;10.080;2022-10-16T12:25:34;2.00;;;1.47;;
16193;SDS011;8204;53.582;10.080;2022-10-16T12:28:17;4.53;;;1.83;;
16193;SDS011;8204;53.582;10.080;2022-10-16T12:30:52;4.57;;;2.23;;
16193;SDS011;8204;53.582;10.080;2022-10-16T12:33:23;4.30;;;2.20;;
16193;SDS011;8204;53.582;10.080;2022-10-16T12:35:56;3.27;;;1.63;;
16193;SDS011;8204;53.582;10.080;2022-10-16T12:38:37;4.97;;;1.70;;
16193;SDS011;8204;53.582;10.080;2022-10-16T12:41:23;3.60;;;1.83;;
16193;SDS011;8204;53.582;10.080;2022-10-16T12:43:54;2.90;;;1.83;;
16193;SDS011;8204;53.582;10.080;2022-10-16T12:46:26;2.13;;;1.30;;
16193;SDS011;8204;53.582;10.080;2022-10-16T12:49:22;4.23;;;1.60;;
16193;SDS011;8204;53.582;10.080;2022-10-16T12:52:00;6.67;;;2.03;;
16193;SDS011;8204;53.582;10.080;2022-10-16T12:54:29;7.50;;;1.77;;
16193;SDS011;8204;53.582;10.080;2022-10-16T12:57:06;4.33;;;2.00;;
16193;SDS011;8204;53.582;10.080;2022-10-16T12:59:42;3.37;;;1.67;;
16193;SDS011;8204;53.582;10.080;2022-10-16T13:05:18;2.40;;;2.00;;
16193;SDS011;8204;53.582;10.080;2022-10-16T13:07:59;3.60;;;1.93;;
16193;SDS011;8204;53.582;10.080;2022-10-16T13:10:41;2.80;;;1.60;;
16193;SDS011;8204;53.582;10.080;2022-10-16T13:13:23;4.67;;;2.53;;
16193;SDS011;8204;53.582;10.080;2022-10-16T13:16:06;4.13;;;2.17;;
16193;SDS011;8204;53.582;10.080;2022-10-16T13:18:45;7.20;;;1.97;;
16193;SDS011;8204;53.582;10.080;2022-10-16T13:21:28;2.83;;;2.10;;
16193;SDS011;8204;53.582;10.080;2022-10-16T13:24:10;2.20;;;1.50;;
16193;SDS011;8204;53.582;10.080;2022-10-16T13:26:47;4.40;;;2.50;;
16193;SDS011;8204;53.582;10.080;2022-10-16T13:29:21;4.37;;;2.43;;
16193;SDS011;8204;53.582;10.080;2022-10-16T13:31:50;7.03;;;1.97;;
16193;SDS011;8204;53.582;10.080;2022-10-16T13:34:20;3.70;;;2.03;;
16193;SDS011;8204;53.582;10.080;2022-10-16T13:36:51;3.57;;;2.87;;
16193;SDS011;8204;53.582;10.080;2022-10-16T13:39:24;4.27;;;2.73;;
16193;SDS011;8204;53.582;10.080;2022-10-16T13:42:00;4.30;;;2.83;;
16193;SDS011;8204;53.582;10.080;2022-10-16T13:44:34;8.63;;;2.70;;
16193;SDS011;8204;53.582;10.080;2022-10-16T13:47:11;5.80;;;2.43;;
16193;SDS011;8204;53.582;10.080;2022-10-16T13:49:44;5.30;;;1.70;;
16193;SDS011;8204;53.582;10.080;2022-10-16T13:52:17;2.13;;;1.77;;
16193;SDS011;8204;53.582;10.080;2022-10-16T13:54:49;2.93;;;1.77;;
16193;SDS011;8204;53.582;10.080;2022-10-16T13:57:18;6.37;;;1.60;;
16193;SDS011;8204;53.582;10.080;2022-10-16T13:59:51;5.20;;;2.23;;
16193;SDS011;8204;53.582;10.080;2022-10-16T14:02:22;2.27;;;1.70;;
16193;SDS011;8204;53.582;10.080;2022-10-16T14:04:55;5.43;;;2.43;;
16193;SDS011;8204;53.582;10.080;2022-10-16T14:07:26;3.60;;;2.07;;
16193;SDS011;8204;53.582;10.080;2022-10-16T14:10:00;3.70;;;1.83;;
16193;SDS011;8204;53.582;10.080;2022-10-16T14:12:31;8.70;;;1.70;;
16193;SDS011;8204;53.582;10.080;2022-10-16T14:15:01;4.90;;;1.70;;
16193;SDS011;8204;53.582;10.080;2022-10-16T14:17:31;3.60;;;1.97;;
16193;SDS011;8204;53.582;10.080;2022-10-16T14:20:04;5.33;;;1.57;;
16193;SDS011;8204;53.582;10.080;2022-10-16T14:22:42;4.03;;;2.13;;
16193;SDS011;8204;53.582;10.080;2022-10-16T14:25:24;6.73;;;2.37;;
16193;SDS011;8204;53.582;10.080;2022-10-16T14:28:02;1.87;;;1.53;;
16193;SDS011;8204;53.582;10.080;2022-10-16T14:30:33;4.90;;;2.00;;
16193;SDS011;8204;53.582;10.080;2022-10-16T14:33:04;3.27;;;1.77;;
16193;SDS011;8204;53.582;10.080;2022-10-16T14:35:34;3.13;;;1.67;;
16193;SDS011;8204;53.582;10.080;2022-10-16T14:38:05;2.83;;;2.10;;
16193;SDS011;8204;53.582;10.080;2022-10-16T14:40:48;5.87;;;2.20;;
16193;SDS011;8204;53.582;10.080;2022-10-16T14:43:20;2.67;;;1.53;;
16193;SDS011;8204;53.582;10.080;2022-10-16T14:45:50;7.97;;;2.43;;
16193;SDS011;8204;53.582;10.080;2022-10-16T14:48:21;3.87;;;1.90;;
16193;SDS011;8204;53.582;10.080;2022-10-16T14:50:50;8.90;;;2.10;;
16193;SDS011;8204;53.582;10.080;2022-10-16T14:53:19;9.27;;;2.27;;
16193;SDS011;8204;53.582;10.080;2022-10-16T14:55:51;4.63;;;2.43;;
16193;SDS011;8204;53.582;10.080;2022-10-16T14:58:21;5.10;;;3.00;;
16193;SDS011;8204;53.582;10.080;2022-10-16T15:00:52;6.93;;;2.13;;
16193;SDS011;8204;53.582;10.080;2022-10-16T15:03:21;4.27;;;2.20;;
16193;SDS011;8204;53.582;10.080;2022-10-16T15:05:49;5.03;;;2.57;;
16193;SDS011;8204;53.582;10.080;2022-10-16T15:08:18;5.20;;;1.90;;
16193;SDS011;8204;53.582;10.080;2022-10-16T15:10:47;6.50;;;2.50;;
16193;SDS011;8204;53.582;10.080;2022-10-16T15:13:18;5.47;;;2.30;;
16193;SDS011;8204;53.582;10.080;2022-10-16T15:15:47;3.77;;;1.90;;
16193;SDS011;8204;53.582;10.080;2022-10-16T15:18:17;3.43;;;2.87;;
16193;SDS011;8204;53.582;10.080;2022-10-16T15:20:47;5.37;;;2.27;;
16193;SDS011;8204;53.582;10.080;2022-10-16T15:23:18;3.00;;;2.40;;
16193;SDS011;8204;53.582;10.080;2022-10-16T15:25:50;2.67;;;1.97;;
16193;SDS011;8204;53.582;10.080;2022-10-16T15:28:23;7.10;;;2.80;;
16193;SDS011;8204;53.582;10.080;2022-10-16T15:30:53;7.33;;;3.00;;
16193;SDS011;8204;53.582;10.080;2022-10-16T15:33:23;4.43;;;2.50;;
16193;SDS011;8204;53.582;10.080;2022-10-16T15:35:59;4.93;;;2.60;;
16193;SDS011;8204;53.582;10.080;2022-10-16T15:38:28;5.13;;;3.10;;
16193;SDS011;8204;53.582;10.080;2022-10-16T15:40:58;3.90;;;2.70;;
16193;SDS011;8204;53.582;10.080;2022-10-16T15:43:29;5.63;;;3.20;;
16193;SDS011;8204;53.582;10.080;2022-10-16T15:45:58;4.23;;;2.43;;
16193;SDS011;8204;53.582;10.080;2022-10-16T15:48:29;7.27;;;3.07;;
16193;SDS011;8204;53.582;10.080;2022-10-16T15:50:58;3.07;;;2.03;;
16193;SDS011;8204;53.582;10.080;2022-10-16T15:53:28;3.10;;;2.57;;
16193;SDS011;8204;53.582;10.080;2022-10-16T15:55:56;2.83;;;2.03;;